Time;durP1;ratioP1;P1;durP2;ratioP2;P2;SDS_P1;SDS_P2;PMS_P1;PMS_P2;Temp;Humidity;BMP_temperature;BMP_pressure;BME280_temperature;BME280_humidity;BME280_pressure;Samples;Min_cycle;Max_cycle;Signal;HPM_P1;HPM_P2
2021/01/19 00:00:08;;;;;;;0.40;0.40;;;;;;;-6.21;66.96;99558.94;5093631;28;20027;-83
2021/01/19 00:02:34;;;;;;;0.50;0.50;;;;;;;-6.16;67.09;99566.91;5093276;28;20039;-83
2021/01/19 00:05:00;;;;;;;0.40;0.40;;;;;;;-6.32;67.32;99523.44;5093139;28;20409;-83
2021/01/19 00:07:30;;;;;;;0.40;0.40;;;;;;;-6.20;66.52;99561.31;5109497;28;20483;-82
2021/01/19 00:09:55;;;;;;;0.50;0.50;;;;;;;-6.28;67.01;99553.19;5092136;28;20024;-82
2021/01/19 00:12:21;;;;;;;0.40;0.40;;;;;;;-6.41;67.05;99521.78;5093717;28;20107;-83
2021/01/19 00:14:47;;;;;;;0.93;0.93;;;;;;;-6.06;67.54;99596.22;5109287;28;20058;-82
2021/01/19 00:17:13;;;;;;;0.40;0.40;;;;;;;-6.07;68.20;99605.41;5109031;28;20055;-82
2021/01/19 00:19:38;;;;;;;0.75;0.75;;;;;;;-6.19;67.71;99559.44;5093054;28;20047;-83
2021/01/19 00:22:04;;;;;;;1.27;1.27;;;;;;;-6.24;66.87;99563.03;5093248;28;20488;-83
2021/01/19 00:24:29;;;;;;;0.30;0.30;;;;;;;-6.18;66.82;99569.09;5091933;28;20094;-83
2021/01/19 00:26:55;;;;;;;1.05;1.05;;;;;;;-6.13;67.08;99601.22;5093062;28;20028;-82
2021/01/19 00:29:20;;;;;;;1.17;1.17;;;;;;;-6.10;67.06;99600.63;5108753;28;20031;-82
2021/01/19 00:31:45;;;;;;;0.93;0.93;;;;;;;-6.07;67.11;99602.72;5092926;28;20038;-83
2021/01/19 00:34:11;;;;;;;0.47;0.47;;;;;;;-6.37;66.39;99563.06;5091515;28;20059;-82
2021/01/19 00:36:36;;;;;;;2.85;1.90;;;;;;;-6.18;66.44;99590.59;5092948;28;20052;-82
2021/01/19 00:39:02;;;;;;;1.70;1.60;;;;;;;-6.26;66.16;99567.13;5093132;28;20381;-82
2021/01/19 00:41:27;;;;;;;1.65;1.65;;;;;;;-6.13;67.04;99593.16;5109246;28;20606;-82
2021/01/19 00:43:53;;;;;;;0.40;0.40;;;;;;;-6.12;66.76;99580.53;5109299;28;20130;-82
2021/01/19 00:46:18;;;;;;;0.85;0.85;;;;;;;-6.11;66.71;99585.59;5095357;28;20030;-82
2021/01/19 00:48:44;;;;;;;0.40;0.40;;;;;;;-6.01;66.56;99588.03;5112292;28;20062;-82
2021/01/19 00:51:09;;;;;;;0.40;0.40;;;;;;;-6.03;66.85;99587.56;5096780;28;20150;-82
2021/01/19 00:53:35;;;;;;;1.08;1.05;;;;;;;-6.21;66.86;99569.72;5096389;28;20035;-82
2021/01/19 00:56:00;;;;;;;1.65;1.63;;;;;;;-6.06;67.13;99587.38;5096354;28;20084;-82
2021/01/19 00:58:25;;;;;;;2.05;1.95;;;;;;;-6.23;67.35;99571.91;5095248;28;20032;-82
2021/01/19 01:00:51;;;;;;;0.30;0.30;;;;;;;-6.04;67.00;99588.66;5096338;28;20035;-82
2021/01/19 01:03:16;;;;;;;0.32;0.32;;;;;;;-6.10;67.36;99597.16;5112082;28;20556;-83
2021/01/19 01:05:42;;;;;;;0.43;0.43;;;;;;;-6.24;66.56;99562.25;5095558;28;20032;-82
2021/01/19 01:08:07;;;;;;;0.40;0.40;;;;;;;-6.24;65.93;99579.16;5095017;28;20082;-82
2021/01/19 01:10:32;;;;;;;0.77;0.77;;;;;;;-6.26;66.77;99577.88;5096188;28;20031;-82
2021/01/19 01:12:58;;;;;;;0.40;0.40;;;;;;;-6.11;67.22;99592.88;5096006;28;20074;-82
2021/01/19 01:15:36;;;;;;;0.40;0.40;;;;;;;-6.13;65.68;99590.47;5095015;28;20468;-81
2021/01/19 01:18:01;;;;;;;;;;;;;;;-6.00;66.39;99599.59;5095381;28;20024;-82
2021/01/19 01:20:27;;;;;;;0.40;0.40;;;;;;;-6.37;66.00;99549.63;5095725;28;19912;-82
2021/01/19 01:22:53;;;;;;;0.43;0.43;;;;;;;-6.14;66.96;99588.88;5111667;28;20020;-82
2021/01/19 01:25:19;;;;;;;0.30;0.30;;;;;;;-6.05;66.77;99603.22;5095876;28;20032;-82
2021/01/19 01:27:46;;;;;;;0.40;0.40;;;;;;;-6.12;67.56;99583.22;5095849;28;20028;-81
2021/01/19 01:30:13;;;;;;;0.55;0.55;;;;;;;-6.14;66.88;99586.19;5094630;28;20020;-82
2021/01/19 01:32:40;;;;;;;0.40;0.40;;;;;;;-6.05;66.84;99600.53;5095714;28;20052;-82
2021/01/19 01:35:06;;;;;;;1.48;1.38;;;;;;;-6.35;65.87;99550.94;5095767;28;20028;-82
2021/01/19 01:37:31;;;;;;;0.60;0.60;;;;;;;-6.18;65.79;99569.09;5095938;28;20031;-82
2021/01/19 01:39:57;;;;;;;0.40;0.40;;;;;;;-6.30;66.05;99560.75;5094773;28;20024;-82
2021/01/19 01:42:24;;;;;;;1.67;1.00;;;;;;;-6.31;66.24;99538.47;5095613;28;20115;-82
2021/01/19 01:44:50;;;;;;;0.47;0.47;;;;;;;-6.11;66.19;99561.41;5095397;28;20027;-83
2021/01/19 01:47:23;;;;;;;0.40;0.40;;;;;;;-5.99;66.09;99588.53;5095140;28;20028;-82
2021/01/19 01:49:54;;;;;;;0.30;0.30;;;;;;;-6.14;66.12;99561.19;5095515;28;20028;-82
2021/01/19 01:52:22;;;;;;;0.60;0.60;;;;;;;-6.17;65.02;99547.28;5095532;28;20035;-82
2021/01/19 01:54:51;;;;;;;0.60;0.60;;;;;;;-6.09;65.36;99553.03;5093725;28;20051;-82
2021/01/19 01:57:19;;;;;;;0.60;0.60;;;;;;;-6.20;65.01;99517.50;5095104;28;20043;-83
2021/01/19 01:59:49;;;;;;;0.63;0.63;;;;;;;-6.00;64.99;99551.97;5093989;28;20051;-83
2021/01/19 02:02:16;;;;;;;0.82;0.82;;;;;;;-6.01;64.03;99554.97;5095451;28;20028;-82
2021/01/19 02:04:42;;;;;;;0.40;0.40;;;;;;;-6.04;64.19;99536.75;5094989;28;20024;-83
2021/01/19 02:07:31;;;;;;;0.50;0.50;;;;;;;-5.91;66.14;99563.59;5095126;28;20470;-82
2021/01/19 02:10:08;;;;;;;0.40;0.40;;;;;;;-5.90;64.86;99567.06;5065198;28;20036;-82
2021/01/19 02:12:45;;;;;;;0.30;0.30;;;;;;;-6.11;64.42;99522.94;5094905;28;20047;-82
2021/01/19 02:15:10;;;;;;;0.43;0.43;;;;;;;-5.85;64.45;99567.72;5110742;28;20058;-82
2021/01/19 02:17:44;;;;;;;0.38;0.38;;;;;;;-5.82;64.67;99571.69;5093628;28;20056;-82
2021/01/19 02:20:38;;;;;;;0.30;0.30;;;;;;;-5.96;64.91;99542.19;5094733;28;20078;-83
2021/01/19 02:23:19;;;;;;;0.52;0.52;;;;;;;-5.89;65.20;99561.38;5091339;28;20068;-82
2021/01/19 02:26:22;;;;;;;0.40;0.40;;;;;;;-5.95;66.02;99535.72;5093428;28;20050;-82
2021/01/19 02:28:58;;;;;;;0.40;0.40;;;;;;;-6.05;65.90;99538.66;5032326;28;20405;-82
2021/01/19 02:31:47;;;;;;;0.40;0.40;;;;;;;-5.97;64.80;99564.03;5086971;28;20047;-83
2021/01/19 02:34:22;;;;;;;0.77;0.75;;;;;;;-6.32;64.68;99499.22;5093216;28;20056;-82
2021/01/19 02:37:09;;;;;;;0.40;0.40;;;;;;;-5.99;65.95;99550.09;5094611;28;20032;-82
2021/01/19 02:39:35;;;;;;;0.90;0.90;;;;;;;-5.97;65.59;99554.06;5094330;28;20020;-82
2021/01/19 02:42:05;;;;;;;0.40;0.40;;;;;;;-6.19;65.33;99522.56;5094474;28;20114;-82
2021/01/19 02:44:34;;;;;;;0.30;0.30;;;;;;;-5.96;65.76;99554.84;5094455;28;20024;-81
2021/01/19 02:47:00;;;;;;;0.65;0.65;;;;;;;-5.91;64.68;99562.81;5093123;28;20040;-82
2021/01/19 02:49:26;;;;;;;0.35;0.35;;;;;;;-5.88;65.55;99568.34;5109911;28;20114;-83
2021/01/19 02:51:54;;;;;;;0.50;0.50;;;;;;;-6.01;65.36;99553.06;5093083;28;20039;-82
2021/01/19 02:54:21;;;;;;;0.47;0.47;;;;;;;-5.92;66.07;99561.22;5092929;28;20089;-82
2021/01/19 02:56:58;;;;;;;0.40;0.40;;;;;;;-5.95;66.00;99568.00;5093073;28;20134;-82
2021/01/19 02:59:37;;;;;;;0.32;0.32;;;;;;;-6.05;65.84;99544.03;5092816;28;20039;-82
2021/01/19 03:02:13;;;;;;;0.40;0.40;;;;;;;-6.08;65.19;99533.88;5092934;28;20020;-82
2021/01/19 03:04:41;;;;;;;0.40;0.40;;;;;;;-6.13;65.28;99534.00;5094190;28;20060;-82
2021/01/19 03:07:08;;;;;;;0.30;0.30;;;;;;;-6.14;64.65;99518.97;5093175;28;20024;-82
2021/01/19 03:09:41;;;;;;;0.45;0.45;;;;;;;-5.91;64.47;99566.28;5093817;28;20057;-82
2021/01/19 03:12:08;;;;;;;0.30;0.30;;;;;;;-5.98;65.25;99557.84;5093799;28;20403;-82
2021/01/19 03:14:37;;;;;;;0.30;0.30;;;;;;;-6.08;65.69;99544.63;5094209;28;20032;-82
2021/01/19 03:17:08;;;;;;;0.45;0.45;;;;;;;-6.32;66.19;99530.69;5093942;28;20066;-82
2021/01/19 03:19:39;;;;;;;0.60;0.60;;;;;;;-6.34;66.03;99516.78;5093646;28;20032;-82
2021/01/19 03:22:05;;;;;;;0.30;0.30;;;;;;;-6.26;65.12;99526.78;5093740;28;20027;-82
2021/01/19 03:24:30;;;;;;;0.88;0.88;;;;;;;-6.13;65.93;99571.66;5093776;28;20031;-82
2021/01/19 03:26:56;;;;;;;0.40;0.40;;;;;;;-6.20;65.40;99549.75;5093590;28;20023;-83
2021/01/19 03:29:22;;;;;;;0.70;0.70;;;;;;;-6.12;65.71;99540.19;5093508;28;20040;-82
2021/01/19 03:31:47;;;;;;;0.40;0.40;;;;;;;-6.00;65.34;99551.19;5093590;28;20038;-82
2021/01/19 03:34:13;;;;;;;0.50;0.50;;;;;;;-6.01;65.03;99552.28;5094054;28;20052;-82
2021/01/19 03:36:38;;;;;;;1.15;1.15;;;;;;;-5.99;65.59;99561.63;5093594;28;20028;-82
2021/01/19 03:39:04;;;;;;;0.52;0.52;;;;;;;-6.05;65.48;99562.06;5092224;28;20028;-82
2021/01/19 03:41:30;;;;;;;0.40;0.40;;;;;;;-6.34;64.22;99538.28;5092250;28;20028;-82
2021/01/19 03:43:55;;;;;;;0.32;0.32;;;;;;;-6.21;65.17;99543.59;5093190;28;20160;-82
2021/01/19 03:46:21;;;;;;;0.38;0.38;;;;;;;-6.00;63.73;99572.69;5109244;28;20077;-82
2021/01/19 03:48:46;;;;;;;0.68;0.68;;;;;;;-6.03;64.32;99565.25;5092160;28;20156;-82
2021/01/19 03:51:12;;;;;;;0.40;0.40;;;;;;;-6.27;64.92;99523.28;5093350;28;20016;-82
2021/01/19 03:53:37;;;;;;;0.30;0.30;;;;;;;-6.28;65.94;99545.94;5093343;28;20104;-82
2021/01/19 03:56:04;;;;;;;0.77;0.77;;;;;;;-6.13;65.62;99568.97;5093283;28;20427;-83
2021/01/19 03:58:29;;;;;;;0.70;0.70;;;;;;;-6.26;65.44;99550.97;5093295;28;20032;-82
2021/01/19 04:00:55;;;;;;;0.47;0.47;;;;;;;-6.02;65.21;99604.47;5092428;28;20031;-82
2021/01/19 04:03:20;;;;;;;0.40;0.40;;;;;;;-6.21;65.93;99562.41;5093136;28;20035;-82
2021/01/19 04:05:45;;;;;;;0.70;0.70;;;;;;;-6.08;64.43;99587.66;5092010;28;20056;-82
2021/01/19 04:08:11;;;;;;;4.60;2.63;;;;;;;-5.94;64.71;99604.56;5091837;28;20116;-82
2021/01/19 04:10:36;;;;;;;0.40;0.40;;;;;;;-6.29;66.33;99551.59;5093082;28;20028;-83
2021/01/19 04:13:02;;;;;;;0.43;0.43;;;;;;;-6.14;64.82;99590.78;5093269;28;20166;-82
2021/01/19 04:15:27;;;;;;;0.77;0.77;;;;;;;-6.14;65.40;99574.63;5109396;28;20471;-82
2021/01/19 04:17:52;;;;;;;0.30;0.30;;;;;;;-6.23;64.97;99561.94;5092896;28;20054;-82
2021/01/19 04:20:18;;;;;;;0.95;0.95;;;;;;;-5.97;64.57;99602.50;5097094;28;20107;-82
2021/01/19 04:22:43;;;;;;;0.80;0.80;;;;;;;-6.18;64.02;99575.25;5097078;28;20032;-82
2021/01/19 04:25:09;;;;;;;0.30;0.30;;;;;;;-6.03;64.56;99603.72;5097114;28;20022;-83
2021/01/19 04:27:34;;;;;;;1.70;1.65;;;;;;;-5.96;63.41;99587.91;5113221;28;20449;-83
2021/01/19 04:30:04;;;;;;;0.30;0.30;;;;;;;-5.82;63.08;99604.78;5096966;28;20031;-82
2021/01/19 04:32:29;;;;;;;0.40;0.40;;;;;;;-5.89;63.98;99611.69;5095522;28;20055;-83
2021/01/19 04:34:55;;;;;;;0.90;0.90;;;;;;;-6.11;63.42;99569.47;5095818;28;20036;-82
2021/01/19 04:37:21;;;;;;;0.75;0.75;;;;;;;-6.04;65.02;99591.34;5095888;28;20028;-82
2021/01/19 04:39:46;;;;;;;0.30;0.30;;;;;;;-6.08;65.13;99584.19;5096539;28;20032;-83
2021/01/19 04:42:18;;;;;;;0.57;0.57;;;;;;;-6.05;64.25;99597.84;5112519;28;20120;-82
2021/01/19 04:44:44;;;;;;;0.85;0.77;;;;;;;-6.21;64.99;99567.78;5095712;28;20020;-82
2021/01/19 04:47:10;;;;;;;0.40;0.40;;;;;;;-6.19;65.95;99568.28;5096499;28;20032;-82
2021/01/19 04:49:36;;;;;;;0.40;0.40;;;;;;;-5.97;64.58;99615.16;5112500;28;20024;-82
2021/01/19 04:52:04;;;;;;;1.15;1.15;;;;;;;-6.24;65.27;99570.31;5096462;28;20042;-82
2021/01/19 04:54:41;;;;;;;0.40;0.40;;;;;;;-5.98;64.57;99614.34;5096363;28;20073;-83
2021/01/19 04:57:19;;;;;;;0.50;0.50;;;;;;;-6.24;65.19;99586.44;5096586;28;20114;-82
2021/01/19 04:59:54;;;;;;;0.40;0.40;;;;;;;-6.02;64.66;99634.06;5096430;28;20028;-82
2021/01/19 05:02:35;;;;;;;0.40;0.40;;;;;;;-6.06;64.69;99639.28;5096327;28;20027;-82
2021/01/19 05:05:25;;;;;;;0.40;0.40;;;;;;;-6.12;66.56;99629.72;5096343;28;20035;-82
2021/01/19 05:08:18;;;;;;;1.38;1.38;;;;;;;-6.06;65.01;99633.88;5096095;28;20024;-83
2021/01/19 05:10:57;;;;;;;0.40;0.40;;;;;;;-6.06;65.19;99633.88;5096028;28;20749;-82
2021/01/19 05:13:36;;;;;;;0.63;0.63;;;;;;;-6.07;64.84;99632.28;5096149;28;20480;-82
2021/01/19 05:16:03;;;;;;;0.40;0.40;;;;;;;-6.03;64.58;99638.69;5096597;28;20032;-82
2021/01/19 05:18:30;;;;;;;0.40;0.40;;;;;;;-5.97;64.92;99626.69;5094832;28;20085;-83
2021/01/19 05:21:00;;;;;;;0.52;0.52;;;;;;;-5.99;64.21;99615.44;5094727;28;20081;-82
2021/01/19 05:23:27;;;;;;;0.40;0.40;;;;;;;-6.02;64.47;99607.97;5095990;28;20047;-82
2021/01/19 05:25:56;;;;;;;0.40;0.40;;;;;;;-5.88;63.90;99632.94;5094979;28;20022;-82
2021/01/19 05:28:35;;;;;;;0.30;0.30;;;;;;;-6.05;64.32;99591.66;5094735;28;20024;-82
2021/01/19 05:31:06;;;;;;;0.40;0.40;;;;;;;-6.07;64.00;99586.56;5110723;28;20024;-82
2021/01/19 05:33:32;;;;;;;0.65;0.57;;;;;;;-5.89;63.40;99615.19;5095381;28;20510;-82
2021/01/19 05:36:09;;;;;;;5.20;1.05;;;;;;;-5.94;63.62;99618.00;5095578;28;20028;-82
2021/01/19 05:38:48;;;;;;;0.30;0.30;;;;;;;-5.94;64.33;99617.22;5095992;28;20078;-82
2021/01/19 05:41:31;;;;;;;0.50;0.50;;;;;;;-5.90;64.15;99626.25;5095441;28;20026;-82
2021/01/19 05:44:18;;;;;;;0.30;0.30;;;;;;;-5.86;63.62;99627.22;5095493;28;20483;-82
2021/01/19 05:47:04;;;;;;;0.30;0.30;;;;;;;-6.12;63.84;99588.59;5094523;28;20080;-83
2021/01/19 05:49:41;;;;;;;0.40;0.40;;;;;;;-5.88;63.65;99643.69;5095727;28;20032;-82
2021/01/19 05:52:07;;;;;;;0.40;0.40;;;;;;;-5.84;63.01;99644.63;5111150;28;20028;-82
2021/01/19 05:54:47;;;;;;;0.40;0.40;;;;;;;-5.87;63.93;99642.56;5094261;28;20063;-82
2021/01/19 05:57:20;;;;;;;0.38;0.38;;;;;;;-6.14;63.92;99606.91;5095695;28;20030;-82
2021/01/19 06:00:01;;;;;;;0.35;0.35;;;;;;;-5.99;63.45;99626.19;5095228;28;20028;-82
2021/01/19 06:02:38;;;;;;;0.68;0.68;;;;;;;-5.96;62.23;99611.31;5095261;28;20598;-82
2021/01/19 06:05:16;;;;;;;0.30;0.30;;;;;;;-5.81;63.09;99627.88;5095163;28;20043;-82
2021/01/19 06:07:46;;;;;;;0.40;0.40;;;;;;;-5.76;62.88;99635.03;5111530;28;20079;-82
2021/01/19 06:10:20;;;;;;;0.65;0.65;;;;;;;-5.85;62.98;99634.19;5093748;28;20069;-82
2021/01/19 06:12:45;;;;;;;0.30;0.30;;;;;;;-5.96;62.47;99609.44;5093829;28;20115;-82
2021/01/19 06:15:11;;;;;;;0.40;0.40;;;;;;;-5.75;62.35;99645.50;5093899;28;20063;-82
2021/01/19 06:17:37;;;;;;;0.40;0.40;;;;;;;-5.80;62.41;99615.22;5093738;28;20031;-82
2021/01/19 06:20:05;;;;;;;0.65;0.65;;;;;;;-5.54;62.06;99650.38;5094368;28;20034;-83
2021/01/19 06:22:31;;;;;;;0.60;0.60;;;;;;;-5.56;61.68;99648.00;5093931;28;20035;-82
2021/01/19 06:25:02;;;;;;;0.40;0.40;;;;;;;-5.82;60.65;99594.00;5094689;28;20024;-83
2021/01/19 06:27:32;;;;;;;0.30;0.30;;;;;;;-5.39;61.53;99652.72;5094634;28;20036;-82
2021/01/19 06:30:00;;;;;;;0.40;0.40;;;;;;;-5.28;61.18;99662.13;5094730;28;20081;-82
2021/01/19 06:32:35;;;;;;;1.38;1.38;;;;;;;-5.29;60.43;99638.19;5093426;28;20533;-82
2021/01/19 06:35:13;;;;;;;0.30;0.30;;;;;;;-5.14;59.92;99665.53;5094988;28;20085;-82
2021/01/19 06:37:39;;;;;;;0.30;0.30;;;;;;;-5.13;60.69;99667.13;5094570;28;20024;-82
2021/01/19 06:40:10;;;;;;;1.77;1.75;;;;;;;-5.27;60.37;99639.47;5093362;28;20024;-82
2021/01/19 06:42:36;;;;;;;0.30;0.30;;;;;;;-5.27;60.05;99626.00;5092243;28;20491;-82
2021/01/19 06:45:12;;;;;;;0.75;0.75;;;;;;;-5.19;59.94;99629.84;5094304;28;20031;-82
2021/01/19 06:47:47;;;;;;;0.30;0.30;;;;;;;-5.20;60.17;99622.88;5093056;28;20027;-82
2021/01/19 06:50:13;;;;;;;0.50;0.50;;;;;;;-5.10;60.27;99646.84;5094662;28;20050;-82
2021/01/19 06:52:42;;;;;;;0.40;0.40;;;;;;;-5.15;59.65;99618.13;5110012;28;20024;-82
2021/01/19 06:55:34;;;;;;;1.13;1.13;;;;;;;-4.83;59.72;99662.03;5094113;28;20032;-82
2021/01/19 06:58:02;;;;;;;0.40;0.40;;;;;;;-4.71;59.36;99659.53;5064808;28;20036;-82
2021/01/19 07:00:37;;;;;;;0.70;0.70;;;;;;;-4.77;59.13;99629.25;5093103;28;20046;-82
2021/01/19 07:03:22;;;;;;;0.40;0.40;;;;;;;-4.53;58.71;99645.00;5094097;28;20158;-82
2021/01/19 07:05:51;;;;;;;1.55;1.55;;;;;;;-4.42;57.95;99659.78;5092796;28;20024;-82
2021/01/19 07:08:19;;;;;;;3.38;3.08;;;;;;;-4.27;57.88;99667.41;5093845;28;20032;-82
2021/01/19 07:10:48;;;;;;;;;;;;;;;-4.13;58.16;99659.19;5092939;28;20035;-82
2021/01/19 07:13:26;;;;;;;0.30;0.30;;;;;;;-4.33;56.62;99601.25;5092684;28;19908;-82
2021/01/19 07:16:05;;;;;;;1.05;1.05;;;;;;;-3.96;56.66;99664.59;5093692;28;20031;-82
2021/01/19 07:19:08;;;;;;;4.20;1.55;;;;;;;-3.78;56.65;99643.81;5094080;28;20109;-82
2021/01/19 07:22:02;;;;;;;0.30;0.30;;;;;;;-3.70;55.53;99645.72;5093592;28;20066;-82
2021/01/19 07:24:33;;;;;;;0.30;0.30;;;;;;;-3.57;54.97;99642.06;5086664;28;20557;-81
2021/01/19 07:27:02;;;;;;;0.40;0.40;;;;;;;-3.63;55.17;99616.31;5093951;28;20091;-82
2021/01/19 07:29:27;;;;;;;0.35;0.35;;;;;;;-3.31;55.19;99652.78;5093522;28;20035;-82
2021/01/19 07:31:53;;;;;;;2.05;1.40;;;;;;;-3.11;54.27;99648.63;5092769;28;20036;-82
2021/01/19 07:34:20;;;;;;;0.40;0.40;;;;;;;-3.00;53.92;99647.94;5093506;28;20499;-82
2021/01/19 07:36:55;;;;;;;0.47;0.47;;;;;;;-2.91;54.13;99634.41;5109159;28;20115;-81
2021/01/19 07:39:21;;;;;;;2.30;2.20;;;;;;;-2.94;53.76;99603.41;5093400;28;20484;-82
2021/01/19 07:41:47;;;;;;;0.40;0.40;;;;;;;-3.00;52.37;99601.19;5093440;28;20035;-83
2021/01/19 07:44:21;;;;;;;0.30;0.30;;;;;;;-2.59;52.57;99657.34;5093584;28;20050;-82
2021/01/19 07:46:47;;;;;;;0.43;0.43;;;;;;;-2.51;51.43;99665.41;5093504;28;20020;-82
2021/01/19 07:49:12;;;;;;;0.35;0.35;;;;;;;-2.42;51.35;99659.97;5093391;28;20034;-83
2021/01/19 07:51:42;;;;;;;0.38;0.38;;;;;;;-2.32;50.25;99656.88;5093214;28;20480;-83
2021/01/19 07:54:09;;;;;;;1.23;1.23;;;;;;;-2.27;50.54;99662.09;5091984;28;20027;-82
2021/01/19 07:56:35;;;;;;;0.60;0.60;;;;;;;-2.40;50.73;99581.13;5093339;28;20031;-82
2021/01/19 07:59:01;;;;;;;0.30;0.30;;;;;;;-1.91;48.69;99649.91;5092404;28;20408;-81
2021/01/19 08:01:27;;;;;;;0.30;0.30;;;;;;;-1.92;49.59;99635.56;5092964;28;20020;-81
2021/01/19 08:03:53;;;;;;;0.43;0.43;;;;;;;-1.90;49.99;99649.56;5093279;28;20035;-81
2021/01/19 08:06:31;;;;;;;1.75;0.45;;;;;;;-1.60;48.62;99653.00;5091750;28;20036;-82
2021/01/19 08:09:08;;;;;;;;;;;;;;;-1.40;49.66;99651.38;5093319;28;20028;-80
2021/01/19 08:11:33;;;;;;;0.30;0.30;;;;;;;-1.31;49.00;99661.00;5092301;28;19908;-81
2021/01/19 08:14:00;;;;;;;0.70;0.70;;;;;;;-1.17;48.71;99668.84;5091829;28;20027;-82
2021/01/19 08:16:32;;;;;;;0.30;0.30;;;;;;;-1.13;48.30;99660.81;5093047;28;20036;-83
2021/01/19 08:19:14;;;;;;;0.60;0.60;;;;;;;-1.06;48.47;99658.34;5092277;28;20673;-82
2021/01/19 08:21:49;;;;;;;0.35;0.35;;;;;;;-0.89;48.13;99664.38;5108878;28;20063;-82
2021/01/19 08:24:14;;;;;;;2.40;1.65;;;;;;;-0.96;48.12;99603.66;5092118;28;20036;-82
2021/01/19 08:26:44;;;;;;;0.68;0.68;;;;;;;-0.58;47.05;99657.63;5092942;28;20039;-82
2021/01/19 08:29:10;;;;;;;0.65;0.65;;;;;;;-0.50;47.70;99665.66;5092965;28;20122;-83
2021/01/19 08:31:36;;;;;;;0.30;0.30;;;;;;;-0.27;47.65;99660.56;5091819;28;20052;-83
2021/01/19 08:34:06;;;;;;;0.50;0.50;;;;;;;-0.14;46.97;99659.44;5109399;28;20072;-82
2021/01/19 08:36:36;;;;;;;0.25;0.25;;;;;;;0.24;45.02;99674.53;5108863;28;20021;-83
2021/01/19 08:39:04;;;;;;;0.20;0.20;;;;;;;0.07;44.75;99634.00;5093122;28;20093;-82
2021/01/19 08:41:31;;;;;;;0.43;0.43;;;;;;;0.34;44.70;99649.56;5092740;28;20025;-83
2021/01/19 08:44:02;;;;;;;0.20;0.20;;;;;;;0.59;44.17;99672.03;5091906;28;20028;-83
2021/01/19 08:46:32;;;;;;;0.90;0.85;;;;;;;0.86;43.87;99632.34;5092791;28;20020;-83
2021/01/19 08:49:08;;;;;;;1.40;1.30;;;;;;;1.20;43.68;99656.97;5091742;28;20036;-83
2021/01/19 08:51:34;;;;;;;1.85;1.48;;;;;;;1.18;43.16;99628.50;5109195;28;20036;-83
2021/01/19 08:54:01;;;;;;;0.75;0.75;;;;;;;1.44;42.56;99647.84;5092783;28;20032;-83
2021/01/19 08:56:27;;;;;;;0.28;0.28;;;;;;;1.56;42.24;99666.81;5092817;28;20035;-83
2021/01/19 08:58:53;;;;;;;2.50;2.35;;;;;;;1.32;43.11;99653.38;5092713;28;20032;-83
2021/01/19 09:01:19;;;;;;;0.20;0.20;;;;;;;1.16;41.67;99614.44;5092624;28;20069;-83
2021/01/19 09:04:02;;;;;;;0.40;0.40;;;;;;;1.32;42.94;99653.38;5092724;28;20032;-83
2021/01/19 09:06:29;;;;;;;0.70;0.70;;;;;;;1.26;43.31;99605.00;5111595;28;20381;-83
2021/01/19 09:08:58;;;;;;;0.30;0.30;;;;;;;1.62;43.45;99654.50;5094672;28;20036;-83
2021/01/19 09:11:29;;;;;;;1.38;1.27;;;;;;;0.92;43.87;99641.81;5096162;28;20081;-83
2021/01/19 09:14:09;;;;;;;1.63;1.52;;;;;;;1.44;44.21;99645.09;5112164;28;20081;-83
2021/01/19 09:16:36;;;;;;;1.55;1.45;;;;;;;1.55;44.50;99615.41;5096272;28;20020;-83
2021/01/19 09:19:07;;;;;;;0.20;0.20;;;;;;;1.81;43.43;99631.94;5094863;28;20028;-82
2021/01/19 09:21:33;;;;;;;1.02;1.02;;;;;;;1.60;41.81;99629.53;5095119;28;20480;-82
2021/01/19 09:23:59;;;;;;;0.20;0.20;;;;;;;1.82;42.98;99638.97;5095865;28;20468;-83
2021/01/19 09:26:25;;;;;;;3.70;1.05;;;;;;;1.67;42.85;99611.78;5095737;28;20028;-83
2021/01/19 09:28:51;;;;;;;0.90;0.90;;;;;;;1.92;41.47;99597.56;5095862;28;20039;-83
2021/01/19 09:31:20;;;;;;;1.42;1.35;;;;;;;1.93;41.50;99634.53;5111655;28;20024;-82
2021/01/19 09:33:54;;;;;;;0.35;0.35;;;;;;;1.95;41.92;99606.94;5111407;28;20078;-83
2021/01/19 09:36:21;;;;;;;0.32;0.32;;;;;;;1.89;41.42;99592.03;5095143;28;20479;-83
2021/01/19 09:38:51;;;;;;;1.73;1.63;;;;;;;1.50;42.60;99602.84;5095613;28;20032;-83
2021/01/19 09:41:19;;;;;;;4.63;3.30;;;;;;;1.96;41.57;99601.16;5094486;28;20127;-83
2021/01/19 09:43:52;;;;;;;;;;;;;;;2.61;42.36;99625.84;5095881;28;20066;-83
2021/01/19 09:46:22;;;;;;;0.20;0.20;;;;;;;2.76;40.61;99619.50;5094425;28;19911;-83
2021/01/19 09:48:50;;;;;;;0.47;0.47;;;;;;;3.15;40.58;99592.09;5095507;28;20157;-83
2021/01/19 09:51:23;;;;;;;;;;;;;;;3.46;40.24;99621.06;5094797;28;20077;-83
2021/01/19 09:53:53;;;;;;;1.90;1.65;;;;;;;3.52;39.57;99612.22;5095543;28;19965;-83
2021/01/19 09:56:19;;;;;;;0.95;0.95;;;;;;;3.42;39.46;99607.38;5094019;28;20027;-84
2021/01/19 09:58:44;;;;;;;0.63;0.63;;;;;;;3.77;38.73;99622.72;5095099;28;20032;-83
2021/01/19 10:01:30;;;;;;;0.82;0.82;;;;;;;3.43;39.26;99608.16;5095196;28;20028;-83
2021/01/19 10:03:56;;;;;;;0.30;0.30;;;;;;;2.61;39.47;99575.94;5093999;28;20146;-84
2021/01/19 10:06:24;;;;;;;0.43;0.43;;;;;;;2.25;40.67;99577.19;5095012;28;20487;-84
2021/01/19 10:08:52;;;;;;;0.43;0.43;;;;;;;1.85;41.90;99597.41;5093713;28;20024;-84
2021/01/19 10:11:32;;;;;;;0.60;0.60;;;;;;;1.61;42.60;99590.28;5094623;28;20031;-84
2021/01/19 10:14:12;;;;;;;4.00;3.58;;;;;;;1.28;43.37;99551.75;5095092;28;20460;-83
2021/01/19 10:16:46;;;;;;;2.28;2.17;;;;;;;1.16;44.11;99576.34;5094728;28;20034;-80
2021/01/19 10:19:32;;;;;;;1.70;1.60;;;;;;;1.17;45.53;99516.13;5094946;28;20071;-83
2021/01/19 10:22:02;;;;;;;0.50;0.50;;;;;;;1.61;46.46;99543.19;5095181;28;20103;-83
2021/01/19 10:24:27;;;;;;;1.55;1.20;;;;;;;1.89;45.89;99575.69;5110676;28;20501;-83
2021/01/19 10:27:03;;;;;;;0.30;0.30;;;;;;;2.00;45.19;99568.50;5093753;28;20024;-83
2021/01/19 10:29:37;;;;;;;2.40;1.45;;;;;;;1.73;45.71;99526.72;5094809;28;20032;-83
2021/01/19 10:32:07;;;;;;;0.20;0.20;;;;;;;1.93;45.13;99528.28;5094097;28;20035;-83
2021/01/19 10:34:35;;;;;;;0.30;0.30;;;;;;;2.28;44.64;99571.03;5094945;28;20036;-83
2021/01/19 10:37:02;;;;;;;0.22;0.22;;;;;;;1.75;45.12;99537.25;5094571;28;20035;-83
2021/01/19 10:39:30;;;;;;;0.65;0.65;;;;;;;1.83;45.23;99520.69;5093230;28;20020;-83
2021/01/19 10:41:57;;;;;;;1.02;1.02;;;;;;;2.19;44.30;99552.16;5093796;28;20059;-83
2021/01/19 10:44:24;;;;;;;0.30;0.30;;;;;;;2.01;44.68;99521.03;5094376;28;20089;-84
2021/01/19 10:47:00;;;;;;;1.42;1.33;;;;;;;2.55;43.81;99552.84;5094559;28;20072;-83
2021/01/19 10:49:30;;;;;;;0.90;0.90;;;;;;;2.39;43.67;99531.91;5094274;28;20024;-83
2021/01/19 10:51:57;;;;;;;1.83;1.70;;;;;;;2.51;43.21;99552.00;5093124;28;20020;-83
2021/01/19 10:54:24;;;;;;;3.25;2.50;;;;;;;2.28;43.75;99550.00;5094163;28;20028;-83
2021/01/19 10:57:04;;;;;;;2.50;2.38;;;;;;;1.68;43.72;99501.69;5094046;28;20085;-84
2021/01/19 10:59:30;;;;;;;1.90;1.80;;;;;;;1.59;44.48;99508.13;5094490;28;20024;-83
2021/01/19 11:01:55;;;;;;;0.65;0.65;;;;;;;1.61;44.55;99532.28;5094032;28;20035;-83
2021/01/19 11:04:21;;;;;;;2.10;2.00;;;;;;;1.64;44.39;99499.66;5094042;28;20016;-83
2021/01/19 11:06:47;;;;;;;3.95;2.55;;;;;;;1.72;44.61;99529.78;5092843;28;20484;-83
2021/01/19 11:09:12;;;;;;;7.60;5.57;;;;;;;1.77;44.76;99521.31;5092635;28;20020;-82
2021/01/19 11:11:38;;;;;;;2.17;2.08;;;;;;;1.66;44.39;99502.03;5093779;28;20026;-83
2021/01/19 11:14:05;;;;;;;1.75;1.65;;;;;;;1.54;44.23;99488.56;5093926;28;20445;-82
2021/01/19 11:16:37;;;;;;;2.60;1.77;;;;;;;1.40;44.57;99501.84;5092646;28;20034;-82
2021/01/19 11:19:04;;;;;;;0.50;0.50;;;;;;;1.55;45.07;99485.47;5092545;28;20063;-82
2021/01/19 11:21:31;;;;;;;1.33;1.33;;;;;;;1.95;44.70;99493.28;5092454;28;20078;-82
2021/01/19 11:23:57;;;;;;;3.42;3.13;;;;;;;2.24;44.66;99497.34;5092379;28;20020;-83
2021/01/19 11:26:23;;;;;;;6.57;1.55;;;;;;;2.31;44.39;99494.75;5093694;28;20039;-82
2021/01/19 11:28:49;;;;;;;0.43;0.43;;;;;;;2.32;43.93;99501.00;5091680;28;20479;-83
2021/01/19 11:31:26;;;;;;;2.38;2.25;;;;;;;2.03;44.74;99465.03;5093513;28;20110;-82
2021/01/19 11:33:52;;;;;;;1.13;1.13;;;;;;;2.21;44.16;99481.72;5092327;28;20060;-82
2021/01/19 11:36:29;;;;;;;1.92;1.83;;;;;;;2.49;44.01;99477.91;5091976;28;20032;-82
2021/01/19 11:38:55;;;;;;;1.13;1.13;;;;;;;2.66;44.33;99471.97;5093412;28;20081;-83
2021/01/19 11:41:23;;;;;;;1.00;1.00;;;;;;;2.73;43.39;99463.91;5109868;28;20024;-82
2021/01/19 11:43:49;;;;;;;0.30;0.30;;;;;;;2.51;44.09;99492.78;5092217;28;20024;-82
2021/01/19 11:46:26;;;;;;;3.75;3.00;;;;;;;2.34;45.01;99485.88;5092173;28;20056;-83
2021/01/19 11:48:53;;;;;;;1.73;1.63;;;;;;;2.39;45.37;99458.28;5093377;28;20404;-82